createdAt,value
2022-09-07T00:02:45.021Z,19.60
2022-09-07T00:05:50.223Z,19.58
2022-09-07T00:08:53.238Z,19.55
2022-09-07T00:11:56.039Z,19.55
2022-09-07T00:15:00.267Z,19.62
2022-09-07T00:18:03.326Z,19.57
2022-09-07T00:21:08.344Z,19.56
2022-09-07T00:24:11.049Z,19.59
2022-09-07T00:27:13.786Z,19.62
2022-09-07T00:30:18.087Z,19.66
2022-09-07T00:33:21.201Z,19.67
2022-09-07T00:36:24.742Z,19.66
2022-09-07T00:39:27.564Z,19.65
2022-09-07T00:42:30.510Z,19.61
2022-09-07T00:45:34.571Z,19.59
2022-09-07T00:48:44.926Z,19.54
2022-09-07T00:51:53.315Z,19.54
2022-09-07T00:55:00.241Z,19.53
2022-09-07T00:58:04.250Z,19.52
2022-09-07T01:01:09.862Z,19.49
2022-09-07T01:04:12.845Z,19.47
2022-09-07T01:07:16.009Z,19.41
2022-09-07T01:10:19.132Z,19.40
2022-09-07T01:13:21.913Z,19.37
2022-09-07T01:16:37.188Z,19.35
2022-09-07T01:20:18.148Z,19.29
2022-09-07T01:24:02.564Z,19.30
2022-09-07T01:27:33.064Z,19.25
2022-09-07T01:30:39.732Z,19.23
2022-09-07T01:33:52.837Z,19.22
2022-09-07T01:37:01.753Z,19.18
2022-09-07T01:40:11.725Z,19.30
2022-09-07T01:43:21.609Z,19.36
2022-09-07T01:46:29.178Z,19.30
2022-09-07T01:49:37.954Z,19.32
2022-09-07T01:52:45.410Z,19.35
2022-09-07T01:55:53.375Z,19.35
2022-09-07T01:58:59.748Z,19.34
2022-09-07T02:02:08.486Z,19.35
2022-09-07T02:05:15.768Z,19.33
2022-09-07T02:08:24.965Z,19.36
2022-09-07T02:11:36.778Z,19.36
2022-09-07T02:14:42.765Z,19.34
2022-09-07T02:17:51.375Z,19.34
2022-09-07T02:20:58.116Z,19.33
2022-09-07T02:24:07.291Z,19.33
2022-09-07T02:27:13.231Z,19.34
2022-09-07T02:30:16.839Z,19.35
2022-09-07T02:33:21.049Z,19.35
2022-09-07T02:36:27.967Z,19.40
2022-09-07T02:39:30.787Z,19.43
2022-09-07T02:42:35.490Z,19.44
2022-09-07T02:45:52.461Z,19.37
2022-09-07T02:49:09.835Z,19.41
2022-09-07T02:52:21.524Z,19.43
2022-09-07T02:55:33.992Z,19.42
2022-09-07T02:58:47.272Z,19.44
2022-09-07T03:01:58.433Z,19.40
2022-09-07T03:05:11.060Z,19.38
2022-09-07T03:08:19.513Z,19.38
2022-09-07T03:11:23.577Z,19.44
2022-09-07T03:14:30.242Z,19.33
2022-09-07T03:17:33.077Z,19.02
2022-09-07T03:20:37.461Z,18.58
2022-09-07T03:23:40.151Z,18.26
2022-09-07T03:26:45.791Z,18.24
2022-09-07T03:29:48.485Z,18.20
2022-09-07T03:32:51.321Z,18.20
2022-09-07T03:36:03.291Z,18.14
2022-09-07T03:39:07.359Z,18.11
2022-09-07T03:42:10.128Z,18.08
2022-09-07T03:45:12.864Z,18.14
2022-09-07T03:48:15.719Z,18.17
2022-09-07T03:51:20.171Z,18.14
2022-09-07T03:54:23.226Z,17.92
2022-09-07T03:57:26.111Z,18.24
2022-09-07T04:00:28.857Z,18.25
2022-09-07T04:03:31.616Z,18.23
2022-09-07T04:06:36.627Z,18.20
2022-09-07T04:09:39.468Z,18.26
2022-09-07T04:12:42.189Z,18.31
2022-09-07T04:15:44.917Z,18.34
2022-09-07T04:18:49.670Z,18.37
2022-09-07T04:21:54.760Z,18.37
2022-09-07T04:24:57.481Z,18.36
2022-09-07T04:28:00.332Z,18.35
2022-09-07T04:31:03.578Z,18.31
2022-09-07T04:34:07.183Z,18.26
2022-09-07T04:37:12.572Z,18.34
2022-09-07T04:40:15.555Z,18.37
2022-09-07T04:43:18.305Z,18.36
2022-09-07T04:46:24.336Z,18.36
2022-09-07T04:49:27.771Z,18.32
2022-09-07T04:52:31.846Z,18.28
2022-09-07T04:55:34.593Z,18.26
2022-09-07T04:58:37.309Z,18.23
2022-09-07T05:01:40.082Z,18.21
2022-09-07T05:04:42.887Z,18.19
2022-09-07T05:07:46.920Z,18.23
2022-09-07T05:10:52.607Z,18.26
2022-09-07T05:13:56.745Z,18.32
2022-09-07T05:16:59.501Z,18.34
2022-09-07T05:20:02.555Z,18.36
2022-09-07T05:23:06.921Z,18.36
2022-09-07T05:26:10.813Z,18.41
2022-09-07T05:32:36.562Z,18.46
2022-09-07T05:35:39.272Z,18.38
2022-09-07T05:38:43.650Z,18.40
2022-09-07T05:41:46.331Z,18.50
2022-09-07T05:44:49.078Z,18.63
2022-09-07T05:47:52.141Z,18.68
2022-09-07T05:50:54.849Z,18.74
2022-09-07T05:53:59.770Z,18.78
2022-09-07T05:57:03.913Z,18.86
2022-09-07T06:00:07.383Z,18.89
2022-09-07T06:03:10.257Z,18.97
2022-09-07T06:06:14.852Z,19.01
2022-09-07T06:09:18.889Z,19.12
2022-09-07T06:12:22.063Z,19.23
2022-09-07T06:15:24.809Z,19.32
2022-09-07T06:18:31.447Z,19.34
2022-09-07T06:21:36.834Z,19.57
2022-09-07T06:24:40.920Z,19.60
2022-09-07T06:27:43.691Z,19.61
2022-09-07T06:30:46.593Z,19.41
2022-09-07T06:33:50.306Z,19.87
2022-09-07T06:36:53.042Z,20.38
2022-09-07T06:39:57.404Z,20.67
2022-09-07T06:43:00.242Z,20.86
2022-09-07T06:55:03.417Z,21.10
2022-09-07T06:58:06.465Z,21.34
2022-09-07T07:01:12.080Z,21.40
2022-09-07T07:04:15.175Z,20.93
2022-09-07T07:07:17.927Z,20.59
2022-09-07T07:10:24.803Z,20.22
2022-09-07T07:13:28.073Z,20.35
2022-09-07T07:16:31.133Z,20.26
2022-09-07T07:19:34.012Z,20.19
2022-09-07T07:22:46.402Z,20.22
2022-09-07T07:25:50.929Z,20.23
2022-09-07T07:29:03.721Z,20.26
2022-09-07T07:32:07.348Z,20.27
2022-09-07T07:35:11.149Z,20.34
2022-09-07T07:41:56.456Z,20.42
2022-09-07T07:52:49.456Z,20.37
2022-09-07T07:54:54.795Z,20.83
2022-09-07T07:57:58.814Z,20.99
2022-09-07T08:01:03.360Z,21.06
2022-09-07T08:04:06.222Z,21.17
2022-09-07T08:07:12.148Z,20.97
2022-09-07T08:10:15.054Z,21.42
2022-09-07T08:13:19.524Z,21.34
2022-09-07T08:16:23.073Z,21.61
2022-09-07T08:19:25.798Z,21.64
2022-09-07T08:22:31.767Z,21.65
2022-09-07T08:25:37.770Z,21.76
2022-09-07T08:28:43.948Z,21.89
2022-09-07T08:31:46.705Z,22.06
2022-09-07T08:34:49.652Z,22.24
2022-09-07T08:37:52.349Z,22.40
2022-09-07T08:40:55.536Z,22.61
2022-09-07T08:44:02.876Z,22.75
2022-09-07T08:47:12.759Z,22.82
2022-09-07T08:50:21.311Z,22.95
2022-09-07T08:53:25.651Z,23.08
2022-09-07T08:56:33.944Z,23.22
2022-09-07T08:59:43.856Z,23.38
2022-09-07T09:03:28.667Z,23.32
2022-09-07T09:06:18.665Z,23.60
2022-09-07T09:09:33.075Z,23.76
2022-09-07T09:12:55.149Z,23.85
2022-09-07T09:16:05.891Z,23.92
2022-09-07T09:19:31.325Z,24.07
2022-09-07T09:22:34.076Z,24.19
2022-09-07T09:25:39.648Z,24.36
2022-09-07T09:28:42.437Z,24.55
2022-09-07T09:31:46.932Z,24.75
2022-09-07T09:35:01.975Z,25.02
2022-09-07T09:38:05.037Z,25.15
2022-09-07T09:41:09.550Z,25.35
2022-09-07T09:44:17.092Z,25.44
2022-09-07T09:47:32.726Z,25.32
2022-09-07T09:54:07.192Z,25.75
2022-09-07T09:57:16.256Z,25.93
2022-09-07T10:00:27.901Z,26.26
2022-09-07T10:07:04.813Z,26.38
2022-09-07T10:10:16.458Z,26.51
2022-09-07T10:13:22.438Z,26.64
2022-09-07T10:16:39.660Z,26.73
2022-09-07T10:19:45.277Z,26.78
2022-09-07T10:22:59.485Z,26.87
2022-09-07T10:26:22.123Z,26.92
2022-09-07T10:29:32.397Z,26.69
2022-09-07T10:32:47.777Z,26.64
2022-09-07T10:35:59.941Z,26.60
2022-09-07T10:39:07.617Z,26.54
2022-09-07T10:42:24.911Z,26.61
2022-09-07T10:45:38.201Z,26.71
2022-09-07T10:48:51.384Z,26.69
2022-09-07T10:52:10.579Z,26.74
2022-09-07T10:55:18.644Z,26.79
2022-09-07T10:59:01.409Z,26.60
2022-09-07T11:02:01.880Z,26.65
2022-09-07T11:05:12.452Z,26.67
2022-09-07T11:09:15.191Z,26.51
2022-09-07T11:15:27.105Z,26.30
2022-09-07T11:18:34.267Z,26.46
2022-09-07T11:21:57.307Z,26.90
2022-09-07T11:28:36.706Z,27.44
2022-09-07T11:31:44.391Z,27.60
2022-09-07T11:34:52.495Z,27.68
2022-09-07T11:37:59.590Z,27.59
2022-09-07T11:41:19.561Z,27.47
2022-09-07T11:44:28.467Z,27.59
2022-09-07T11:47:37.107Z,27.58
2022-09-07T11:50:47.272Z,27.70
2022-09-07T11:53:54.754Z,27.91
2022-09-07T11:57:09.457Z,27.90
2022-09-07T12:00:18.829Z,28.06
2022-09-07T12:03:44.056Z,27.86
2022-09-07T12:07:19.834Z,27.84
2022-09-07T12:10:37.774Z,27.86
2022-09-07T12:14:13.251Z,28.29
2022-09-07T12:17:27.782Z,28.60
2022-09-07T12:20:41.456Z,28.76
2022-09-07T12:23:48.465Z,28.89
2022-09-07T12:26:52.364Z,28.98
2022-09-07T12:30:29.145Z,29.15
2022-09-07T12:33:36.729Z,29.39
2022-09-07T12:36:50.456Z,29.56
2022-09-07T12:40:32.361Z,29.65
2022-09-07T12:44:10.350Z,29.55
2022-09-07T12:47:29.337Z,29.49
2022-09-07T12:50:39.460Z,29.57
2022-09-07T12:53:54.209Z,29.47
2022-09-07T13:00:37.382Z,29.96
2022-09-07T13:03:53.554Z,29.89
2022-09-07T13:07:19.385Z,30.07
2022-09-07T13:10:30.499Z,30.00
2022-09-07T13:17:29.729Z,29.70
2022-09-07T13:20:37.602Z,29.64
2022-09-07T13:23:45.758Z,29.63
2022-09-07T13:26:54.203Z,29.59
2022-09-07T13:30:00.506Z,29.30
2022-09-07T13:33:49.104Z,29.42
2022-09-07T13:36:51.959Z,29.30
2022-09-07T13:39:58.432Z,29.31
2022-09-07T13:43:04.086Z,29.06
2022-09-07T13:46:18.044Z,28.89
2022-09-07T13:49:37.331Z,28.73
2022-09-07T13:52:56.373Z,28.53
2022-09-07T13:56:12.371Z,28.58
2022-09-07T13:59:20.464Z,28.64
2022-09-07T14:02:27.143Z,28.77
2022-09-07T14:05:30.122Z,29.02
2022-09-07T14:08:36.728Z,29.35
2022-09-07T14:11:45.327Z,29.23
2022-09-07T14:14:48.624Z,29.17
2022-09-07T14:18:01.606Z,29.04
2022-09-07T14:21:05.853Z,28.83
2022-09-07T14:24:28.983Z,28.68
2022-09-07T14:27:35.415Z,28.52
2022-09-07T14:30:38.909Z,28.34
2022-09-07T14:33:47.280Z,28.46
2022-09-07T14:36:51.753Z,28.41
2022-09-07T14:39:55.956Z,28.35
2022-09-07T14:43:00.063Z,28.31
2022-09-07T14:46:16.681Z,28.30
2022-09-07T14:49:21.605Z,28.41
2022-09-07T14:52:33.387Z,28.31
2022-09-07T14:55:40.507Z,28.33
2022-09-07T14:58:44.661Z,28.32
2022-09-07T15:01:47.349Z,28.34
2022-09-07T15:05:10.933Z,28.36
2022-09-07T15:08:38.722Z,28.33
2022-09-07T15:11:41.483Z,28.23
2022-09-07T15:14:45.997Z,28.04
2022-09-07T15:17:49.536Z,27.89
2022-09-07T15:20:52.992Z,27.83
2022-09-07T15:23:58.560Z,27.81
2022-09-07T15:27:03.159Z,27.65
2022-09-07T15:30:10.759Z,27.84
2022-09-07T15:33:13.848Z,27.99
2022-09-07T15:36:17.886Z,27.98
2022-09-07T15:39:22.425Z,28.00
2022-09-07T15:45:51.288Z,28.09
2022-09-07T15:48:55.861Z,27.98
2022-09-07T15:52:06.414Z,28.10
2022-09-07T15:55:09.876Z,28.16
2022-09-07T15:58:13.531Z,28.20
2022-09-07T16:04:41.012Z,28.34
2022-09-07T16:11:18.712Z,28.24
2022-09-07T16:14:21.602Z,28.17
2022-09-07T16:17:27.437Z,28.07
2022-09-07T16:20:37.840Z,27.94
2022-09-07T16:23:43.276Z,27.78
2022-09-07T16:26:45.955Z,27.68
2022-09-07T16:29:49.105Z,27.60
2022-09-07T16:32:53.461Z,27.66
2022-09-07T16:36:01.002Z,27.46
2022-09-07T16:39:04.115Z,27.54
2022-09-07T16:42:08.871Z,27.32
2022-09-07T16:48:37.325Z,27.23
2022-09-07T16:51:40.911Z,27.18
2022-09-07T16:54:43.810Z,27.23
2022-09-07T17:01:11.459Z,27.04
2022-09-07T17:04:15.660Z,26.83
2022-09-07T17:07:18.612Z,26.64
2022-09-07T17:10:21.450Z,26.40
2022-09-07T17:13:25.487Z,26.32
2022-09-07T17:16:31.241Z,26.19
2022-09-07T17:19:36.247Z,26.09
2022-09-07T17:22:39.060Z,26.00
2022-09-07T17:25:41.758Z,25.94
2022-09-07T17:28:46.158Z,25.92
2022-09-07T17:35:12.953Z,25.90
2022-09-07T17:41:38.875Z,25.75
2022-09-07T17:44:41.837Z,25.68
2022-09-07T17:47:44.996Z,25.57
2022-09-07T17:50:49.371Z,25.44
2022-09-07T17:53:58.784Z,25.46
2022-09-07T17:57:02.044Z,25.46
2022-09-07T18:00:11.226Z,25.37
2022-09-07T18:03:14.755Z,25.25
2022-09-07T18:06:20.032Z,25.18
2022-09-07T18:09:22.932Z,25.16
2022-09-07T18:12:25.745Z,25.09
2022-09-07T18:15:28.901Z,25.04
2022-09-07T18:18:31.804Z,24.98
2022-09-07T18:21:37.961Z,24.79
2022-09-07T18:24:40.742Z,24.80
2022-09-07T18:27:44.248Z,24.79
2022-09-07T18:30:47.273Z,24.68
2022-09-07T18:33:50.009Z,24.57
2022-09-07T18:36:55.213Z,24.47
2022-09-07T18:39:58.108Z,24.23
2022-09-07T18:43:04.251Z,24.16
2022-09-07T18:46:09.970Z,24.17
2022-09-07T18:49:12.711Z,24.03
2022-09-07T18:55:41.344Z,24.05
2022-09-07T18:58:45.583Z,24.00
2022-09-07T19:01:48.645Z,23.95
2022-09-07T19:08:16.053Z,23.81
2022-09-07T19:11:21.027Z,23.75
2022-09-07T19:14:23.796Z,23.68
2022-09-07T19:17:26.497Z,23.64
2022-09-07T19:20:29.612Z,23.63
2022-09-07T19:23:34.176Z,23.59
2022-09-07T19:26:38.862Z,23.59
2022-09-07T19:29:41.734Z,23.59
2022-09-07T19:32:44.742Z,23.60
2022-09-07T19:35:47.751Z,23.57
2022-09-07T19:38:51.934Z,23.57
2022-09-07T19:41:54.781Z,23.52
2022-09-07T19:44:57.574Z,23.50
2022-09-07T19:48:00.275Z,23.52
2022-09-07T19:51:03.031Z,23.53
2022-09-07T19:54:08.296Z,23.52
2022-09-07T19:57:11.091Z,23.50
2022-09-07T20:00:14.863Z,23.51
2022-09-07T20:03:17.576Z,23.42
2022-09-07T20:06:20.332Z,23.30
2022-09-07T20:09:24.851Z,23.27
2022-09-07T20:12:27.795Z,23.26
2022-09-07T20:15:31.309Z,23.24
2022-09-07T20:18:36.439Z,23.23
2022-09-07T20:21:39.169Z,23.19
2022-09-07T20:24:43.745Z,22.79
2022-09-07T20:27:46.717Z,22.37
2022-09-07T20:30:49.423Z,22.01
2022-09-07T20:33:52.750Z,21.90
2022-09-07T20:36:56.879Z,21.92
2022-09-07T20:40:01.152Z,21.94
2022-09-07T20:43:05.034Z,21.88
2022-09-07T20:46:09.869Z,21.87
2022-09-07T20:49:12.719Z,21.85
2022-09-07T20:52:15.465Z,21.84
2022-09-07T20:55:19.616Z,21.84
2022-09-07T20:58:22.310Z,21.87
2022-09-07T21:01:25.515Z,21.83
2022-09-07T21:04:28.385Z,21.79
2022-09-07T21:07:31.080Z,21.77
2022-09-07T21:10:39.376Z,21.76
2022-09-07T21:13:42.573Z,21.68
2022-09-07T21:16:45.237Z,21.68
2022-09-07T21:19:47.978Z,21.64
2022-09-07T21:22:50.754Z,21.61
2022-09-07T21:25:54.905Z,21.60
2022-09-07T21:28:58.755Z,21.59
2022-09-07T21:32:03.039Z,21.58
2022-09-07T21:35:07.012Z,21.54
2022-09-07T21:38:09.775Z,21.53
2022-09-07T21:41:16.781Z,21.51
2022-09-07T21:44:20.409Z,21.50
2022-09-07T21:47:23.282Z,21.48
2022-09-07T21:50:26.393Z,21.46
2022-09-07T21:53:29.429Z,21.46
2022-09-07T21:56:33.922Z,21.46
2022-09-07T21:59:36.622Z,21.42
2022-09-07T22:02:39.553Z,21.41
2022-09-07T22:05:42.583Z,21.42
2022-09-07T22:08:45.850Z,21.42
2022-09-07T22:11:50.438Z,21.41
2022-09-07T22:14:53.178Z,21.43
2022-09-07T22:17:56.653Z,21.41
2022-09-07T22:21:04.299Z,21.38
2022-09-07T22:24:07.767Z,21.38
2022-09-07T22:27:11.855Z,21.31
2022-09-07T22:30:15.584Z,21.23
2022-09-07T22:33:18.649Z,21.17
2022-09-07T22:36:23.353Z,21.16
2022-09-07T22:39:26.346Z,21.11
2022-09-07T22:42:30.358Z,21.04
2022-09-07T22:45:33.443Z,21.02
2022-09-07T22:48:37.024Z,20.98
2022-09-07T22:51:40.139Z,20.84
2022-09-07T22:54:42.964Z,20.97
2022-09-07T22:57:49.693Z,20.98
2022-09-07T23:00:52.891Z,20.99
2022-09-07T23:03:56.356Z,21.00
2022-09-07T23:06:59.376Z,21.00
2022-09-07T23:10:02.085Z,21.02
2022-09-07T23:16:09.508Z,21.02
2022-09-07T23:19:13.659Z,21.01
2022-09-07T23:22:16.283Z,21.00
2022-09-07T23:25:18.986Z,20.99
2022-09-07T23:28:23.411Z,20.98
2022-09-07T23:31:27.499Z,20.97
2022-09-07T23:34:30.296Z,20.98
2022-09-07T23:37:33.373Z,20.97
2022-09-07T23:40:36.792Z,20.94
2022-09-07T23:43:41.276Z,20.85
2022-09-07T23:46:44.435Z,20.82
2022-09-07T23:49:47.595Z,20.62
2022-09-07T23:52:50.297Z,20.80
2022-09-07T23:55:53.555Z,20.68
2022-09-07T23:58:58.074Z,20.76
